createdAt,value
2018-05-26T00:01:25.623Z,17.86
2018-05-26T00:03:56.598Z,17.76
2018-05-26T00:06:27.596Z,17.77
2018-05-26T00:08:58.620Z,17.77
2018-05-26T00:11:29.657Z,17.76
2018-05-26T00:14:00.671Z,17.75
2018-05-26T00:16:31.686Z,17.73
2018-05-26T00:19:02.655Z,17.71
2018-05-26T00:21:33.661Z,17.73
2018-05-26T00:24:04.677Z,17.73
2018-05-26T00:26:35.626Z,17.75
2018-05-26T00:29:06.670Z,17.75
2018-05-26T00:31:37.672Z,17.75
2018-05-26T00:34:08.724Z,17.74
2018-05-26T00:36:39.734Z,17.74
2018-05-26T00:39:10.787Z,17.74
2018-05-26T00:41:41.768Z,17.71
2018-05-26T00:44:12.768Z,17.69
2018-05-26T00:46:43.745Z,17.66
2018-05-26T00:49:14.753Z,17.67
2018-05-26T00:51:45.763Z,17.69
2018-05-26T00:54:16.795Z,17.69
2018-05-26T00:56:47.800Z,17.68
2018-05-26T00:59:18.823Z,17.68
2018-05-26T01:01:49.835Z,17.65
2018-05-26T01:04:20.879Z,17.64
2018-05-26T01:06:51.899Z,17.63
2018-05-26T01:09:22.886Z,17.63
2018-05-26T01:11:53.845Z,17.59
2018-05-26T01:14:24.887Z,17.59
2018-05-26T01:16:55.949Z,17.61
2018-05-26T01:19:26.974Z,17.61
2018-05-26T01:21:57.958Z,17.58
2018-05-26T01:24:29.040Z,17.52
2018-05-26T01:27:00.016Z,17.52
2018-05-26T01:29:31.016Z,17.52
2018-05-26T01:32:02.088Z,17.50
2018-05-26T01:34:33.114Z,17.50
2018-05-26T01:37:04.178Z,17.50
2018-05-26T01:39:35.202Z,17.50
2018-05-26T01:42:06.194Z,17.48
2018-05-26T01:44:37.188Z,17.47
2018-05-26T01:47:08.200Z,17.47
2018-05-26T01:49:39.210Z,17.42
2018-05-26T01:52:10.239Z,17.41
2018-05-26T01:54:41.209Z,17.41
2018-05-26T01:57:12.222Z,17.42
2018-05-26T01:59:43.217Z,17.46
2018-05-26T02:02:14.206Z,17.45
2018-05-26T02:04:45.227Z,17.45
2018-05-26T02:07:16.209Z,17.56
2018-05-26T02:09:47.245Z,17.66
2018-05-26T02:12:18.284Z,17.81
2018-05-26T02:14:49.282Z,17.93
2018-05-26T02:17:20.306Z,18.06
2018-05-26T02:19:51.282Z,18.05
2018-05-26T02:22:22.298Z,18.05
2018-05-26T02:24:53.330Z,18.08
2018-05-26T02:27:24.333Z,18.13
2018-05-26T02:29:55.299Z,18.16
2018-05-26T02:32:26.324Z,18.18
2018-05-26T02:34:57.350Z,18.31
2018-05-26T02:37:28.352Z,18.38
2018-05-26T02:39:59.325Z,18.45
2018-05-26T02:42:30.295Z,18.49
2018-05-26T02:45:01.278Z,18.38
2018-05-26T02:47:32.248Z,18.30
2018-05-26T02:50:03.244Z,18.22
2018-05-26T02:52:34.235Z,18.25
2018-05-26T02:55:05.256Z,18.28
2018-05-26T02:57:36.216Z,18.22
2018-05-26T03:00:07.224Z,18.25
2018-05-26T03:02:38.221Z,18.22
2018-05-26T03:05:15.251Z,18.26
2018-05-26T03:07:52.565Z,18.28
2018-05-26T03:10:29.636Z,18.14
2018-05-26T03:13:06.886Z,18.18
2018-05-26T03:15:37.909Z,18.18
2018-05-26T03:18:09.980Z,18.25
2018-05-26T03:20:40.974Z,18.39
2018-05-26T03:23:12.026Z,18.56
2018-05-26T03:25:43.003Z,18.57
2018-05-26T03:28:14.006Z,18.49
2018-05-26T03:30:45.026Z,18.48
2018-05-26T03:33:16.009Z,18.54
2018-05-26T03:35:47.002Z,18.62
2018-05-26T03:38:18.002Z,18.75
2018-05-26T03:40:49.006Z,18.85
2018-05-26T03:43:19.971Z,18.84
2018-05-26T03:45:50.991Z,18.78
2018-05-26T03:48:21.946Z,18.71
2018-05-26T03:50:52.944Z,18.60
2018-05-26T03:53:23.940Z,18.64
2018-05-26T03:56:07.347Z,18.53
2018-05-26T03:58:50.546Z,18.45
2018-05-26T04:01:21.566Z,18.46
2018-05-26T04:03:53.371Z,18.61
2018-05-26T04:06:24.404Z,18.74
2018-05-26T04:08:55.411Z,18.81
2018-05-26T04:11:26.532Z,18.84
2018-05-26T04:13:57.443Z,18.84
2018-05-26T04:16:28.452Z,18.90
2018-05-26T04:18:59.456Z,18.87
2018-05-26T04:21:30.494Z,18.89
2018-05-26T04:24:01.503Z,18.89
2018-05-26T04:26:32.517Z,18.83
2018-05-26T04:29:03.472Z,18.89
2018-05-26T04:31:34.489Z,18.94
2018-05-26T04:34:05.524Z,19.09
2018-05-26T04:36:36.548Z,19.24
2018-05-26T04:39:07.612Z,19.50
2018-05-26T04:41:38.644Z,19.70
2018-05-26T04:44:09.660Z,19.84
2018-05-26T04:46:40.673Z,19.90
2018-05-26T04:49:11.726Z,19.90
2018-05-26T04:51:42.718Z,19.89
2018-05-26T04:54:13.738Z,19.95
2018-05-26T04:56:44.761Z,20.02
2018-05-26T04:59:16.539Z,20.13
2018-05-26T05:01:48.242Z,20.16
2018-05-26T05:04:27.184Z,20.28
2018-05-26T05:06:58.256Z,20.48
2018-05-26T05:09:29.639Z,20.50
2018-05-26T05:12:00.971Z,20.53
2018-05-26T05:14:32.373Z,20.67
2018-05-26T05:17:05.524Z,20.82
2018-05-26T05:19:36.581Z,20.92
2018-05-26T05:22:07.561Z,21.10
2018-05-26T05:24:38.597Z,21.22
2018-05-26T05:27:09.605Z,21.21
2018-05-26T05:29:40.616Z,21.15
2018-05-26T05:32:11.638Z,21.51
2018-05-26T05:34:42.663Z,21.55
2018-05-26T05:37:13.706Z,21.58
2018-05-26T05:39:44.688Z,21.36
2018-05-26T05:42:15.696Z,21.30
2018-05-26T05:44:46.716Z,21.40
2018-05-26T05:47:17.731Z,21.53
2018-05-26T05:49:48.737Z,21.70
2018-05-26T05:52:19.770Z,21.89
2018-05-26T05:54:50.796Z,21.83
2018-05-26T05:57:21.796Z,22.01
2018-05-26T05:59:52.802Z,22.25
2018-05-26T06:02:23.845Z,22.47
2018-05-26T06:04:54.819Z,22.47
2018-05-26T06:07:25.807Z,22.45
2018-05-26T06:09:56.841Z,22.38
2018-05-26T06:12:27.834Z,22.44
2018-05-26T06:14:58.889Z,22.70
2018-05-26T06:17:29.923Z,22.99
2018-05-26T06:20:00.937Z,23.39
2018-05-26T06:22:32.019Z,23.66
2018-05-26T06:25:03.052Z,23.86
2018-05-26T06:27:34.074Z,23.84
2018-05-26T06:30:05.121Z,24.08
2018-05-26T06:32:36.150Z,24.91
2018-05-26T06:35:07.202Z,25.75
2018-05-26T06:37:38.248Z,27.17
2018-05-26T06:40:09.270Z,27.88
2018-05-26T06:42:40.285Z,28.01
2018-05-26T06:45:11.300Z,29.08
2018-05-26T06:47:42.334Z,29.47
2018-05-26T06:50:13.388Z,30.45
2018-05-26T06:52:44.384Z,31.61
2018-05-26T06:55:15.379Z,34.57
2018-05-26T06:57:46.368Z,37.25
2018-05-26T07:00:17.420Z,36.48
2018-05-26T07:02:48.376Z,35.08
2018-05-26T07:05:19.411Z,35.52
2018-05-26T07:07:57.455Z,39.71
2018-05-26T07:10:28.470Z,40.68
2018-05-26T07:12:59.460Z,40.53
2018-05-26T07:15:30.485Z,44.38
2018-05-26T07:18:01.499Z,48.36
2018-05-26T07:20:32.572Z,50.69
2018-05-26T07:23:03.598Z,52.48
2018-05-26T07:25:34.562Z,53.09
2018-05-26T07:28:05.607Z,53.93
2018-05-26T07:30:36.610Z,55.15
2018-05-26T07:33:07.610Z,56.02
2018-05-26T07:35:38.602Z,56.67
2018-05-26T07:38:09.618Z,57.05
2018-05-26T07:40:40.598Z,57.50
2018-05-26T07:43:11.683Z,56.64
2018-05-26T07:45:42.699Z,57.12
2018-05-26T07:48:13.783Z,57.90
2018-05-26T07:50:44.765Z,58.42
2018-05-26T07:53:15.807Z,58.44
2018-05-26T07:55:46.809Z,58.39
2018-05-26T07:58:17.884Z,59.30
2018-05-26T08:00:48.929Z,57.19
2018-05-26T08:03:19.957Z,56.46
2018-05-26T08:05:50.985Z,55.72
2018-05-26T08:08:22.022Z,56.53
2018-05-26T08:10:53.059Z,56.76
2018-05-26T08:13:24.091Z,56.49
2018-05-26T08:15:55.256Z,57.17
2018-05-26T08:18:26.271Z,58.64
2018-05-26T08:20:57.281Z,58.49
2018-05-26T08:23:28.307Z,59.53
2018-05-26T08:25:59.357Z,59.83
2018-05-26T08:28:30.363Z,60.46
2018-05-26T08:31:01.379Z,60.51
2018-05-26T08:33:32.410Z,59.98
2018-05-26T08:36:03.417Z,60.40
2018-05-26T08:38:34.462Z,60.60
2018-05-26T08:41:05.459Z,60.12
2018-05-26T08:43:36.470Z,59.34
2018-05-26T08:46:07.476Z,59.07
2018-05-26T08:48:38.495Z,59.29
2018-05-26T08:51:09.625Z,59.81
2018-05-26T08:53:40.713Z,60.05
2018-05-26T08:56:11.913Z,60.56
2018-05-26T08:58:42.994Z,61.23
2018-05-26T09:01:14.020Z,60.63
2018-05-26T09:03:45.060Z,60.75
2018-05-26T09:06:16.042Z,60.40
2018-05-26T09:08:47.067Z,60.43
2018-05-26T09:11:18.128Z,59.98
2018-05-26T09:13:49.121Z,59.65
2018-05-26T09:16:20.188Z,59.74
2018-05-26T09:18:51.173Z,58.76
2018-05-26T09:21:22.198Z,58.72
2018-05-26T09:23:53.228Z,59.43
2018-05-26T09:26:24.240Z,59.88
2018-05-26T09:28:55.284Z,59.53
2018-05-26T09:31:26.363Z,58.69
2018-05-26T09:33:57.377Z,59.17
2018-05-26T09:36:28.418Z,59.79
2018-05-26T09:38:59.509Z,59.77
2018-05-26T09:41:30.596Z,59.76
2018-05-26T09:44:01.606Z,59.94
2018-05-26T09:46:32.613Z,59.46
2018-05-26T09:49:03.633Z,59.41
2018-05-26T09:51:34.678Z,59.62
2018-05-26T09:54:05.714Z,58.99
2018-05-26T09:56:36.703Z,58.77
2018-05-26T09:59:07.671Z,58.28
2018-05-26T10:01:38.692Z,57.46
2018-05-26T10:04:09.741Z,57.25
2018-05-26T10:06:40.889Z,56.72
2018-05-26T10:09:11.964Z,56.93
2018-05-26T10:11:42.970Z,56.83
2018-05-26T10:14:14.225Z,54.36
2018-05-26T10:16:45.240Z,53.10
2018-05-26T10:19:16.316Z,52.62
2018-05-26T10:21:47.316Z,52.08
2018-05-26T10:24:18.351Z,49.85
2018-05-26T10:26:49.407Z,48.84
2018-05-26T10:29:20.438Z,48.27
2018-05-26T10:31:51.477Z,48.20
2018-05-26T10:34:22.543Z,48.30
2018-05-26T10:36:53.522Z,49.03
2018-05-26T10:39:24.547Z,50.01
2018-05-26T10:41:55.575Z,50.94
2018-05-26T10:44:26.692Z,51.09
2018-05-26T10:46:57.759Z,51.29
2018-05-26T10:49:28.796Z,49.12
2018-05-26T10:51:59.836Z,46.33
2018-05-26T10:54:30.843Z,44.65
2018-05-26T10:57:01.879Z,43.16
2018-05-26T10:59:32.867Z,41.80
2018-05-26T11:02:03.905Z,40.21
2018-05-26T11:04:34.934Z,38.45
2018-05-26T11:07:05.986Z,37.17
2018-05-26T11:09:36.972Z,36.21
2018-05-26T11:12:07.944Z,35.46
2018-05-26T11:14:39.019Z,34.87
2018-05-26T11:17:10.130Z,35.01
2018-05-26T11:19:41.150Z,35.04
2018-05-26T11:22:12.164Z,34.81
2018-05-26T11:24:43.286Z,34.69
2018-05-26T11:27:14.223Z,34.57
2018-05-26T11:29:45.331Z,34.44
2018-05-26T11:32:16.344Z,34.37
2018-05-26T11:34:47.365Z,34.22
2018-05-26T11:37:18.411Z,34.01
2018-05-26T11:39:49.372Z,33.90
2018-05-26T11:42:20.410Z,33.76
2018-05-26T11:44:51.401Z,33.61
2018-05-26T11:47:22.435Z,33.38
2018-05-26T11:49:53.423Z,33.43
2018-05-26T11:52:24.434Z,33.54
2018-05-26T11:54:55.440Z,33.83
2018-05-26T11:57:26.417Z,33.92
2018-05-26T11:59:57.528Z,33.95
2018-05-26T12:02:28.524Z,33.97
2018-05-26T12:04:59.572Z,34.02
2018-05-26T12:07:30.594Z,33.77
2018-05-26T12:10:01.704Z,33.60
2018-05-26T12:12:32.742Z,33.36
2018-05-26T12:15:03.811Z,33.17
2018-05-26T12:17:34.794Z,33.49
2018-05-26T12:20:05.851Z,33.77
2018-05-26T12:22:36.893Z,33.72
2018-05-26T12:25:07.983Z,33.79
2018-05-26T12:27:39.004Z,34.09
2018-05-26T12:30:10.023Z,34.35
2018-05-26T12:32:41.027Z,34.31
2018-05-26T12:35:12.025Z,34.38
2018-05-26T12:37:43.035Z,34.77
2018-05-26T12:40:14.060Z,35.11
2018-05-26T12:42:45.125Z,34.94
2018-05-26T12:45:16.142Z,35.12
2018-05-26T12:47:47.122Z,35.48
2018-05-26T12:50:18.132Z,35.38
2018-05-26T12:52:49.424Z,35.16
2018-05-26T12:55:20.484Z,34.88
2018-05-26T12:57:51.539Z,35.08
2018-05-26T13:00:22.663Z,35.13
2018-05-26T13:02:53.721Z,34.51
2018-05-26T13:05:24.818Z,33.97
2018-05-26T13:07:55.811Z,34.07
2018-05-26T13:10:26.892Z,34.06
2018-05-26T13:12:57.965Z,34.52
2018-05-26T13:15:28.993Z,34.35
2018-05-26T13:18:00.051Z,34.38
2018-05-26T13:20:31.122Z,34.54
2018-05-26T13:23:02.244Z,34.81
2018-05-26T13:25:33.268Z,34.70
2018-05-26T13:28:04.339Z,34.95
2018-05-26T13:30:35.357Z,35.10
2018-05-26T13:33:06.364Z,35.10
2018-05-26T13:35:37.404Z,35.40
2018-05-26T13:38:08.385Z,35.83
2018-05-26T13:40:39.480Z,35.91
2018-05-26T13:43:10.522Z,35.69
2018-05-26T13:45:41.564Z,35.84
2018-05-26T13:48:12.680Z,36.32
2018-05-26T13:50:43.713Z,36.72
2018-05-26T13:53:14.782Z,37.19
2018-05-26T13:55:45.779Z,37.48
2018-05-26T13:58:16.898Z,37.83
2018-05-26T14:00:47.913Z,38.14
2018-05-26T14:03:18.916Z,38.75
2018-05-26T14:05:49.918Z,39.11
2018-05-26T14:08:21.016Z,38.70
2018-05-26T14:10:52.003Z,38.44
2018-05-26T14:13:23.092Z,38.34
2018-05-26T14:15:54.104Z,37.96
2018-05-26T14:18:25.125Z,37.66
2018-05-26T14:20:56.163Z,37.80
2018-05-26T14:23:27.926Z,37.83
2018-05-26T14:25:59.073Z,37.56
2018-05-26T14:28:30.112Z,37.14
2018-05-26T14:31:01.202Z,36.63
2018-05-26T14:33:32.295Z,36.37
2018-05-26T14:36:03.437Z,36.04
2018-05-26T14:38:34.422Z,35.92
2018-05-26T14:41:05.508Z,35.95
2018-05-26T14:43:36.601Z,35.84
2018-05-26T14:46:07.681Z,36.14
2018-05-26T14:48:38.730Z,36.22
2018-05-26T14:51:09.732Z,36.40
2018-05-26T14:53:40.754Z,36.58
2018-05-26T14:56:11.766Z,36.14
2018-05-26T14:58:42.862Z,35.63
2018-05-26T15:01:13.897Z,35.41
2018-05-26T15:03:44.966Z,35.08
2018-05-26T15:06:15.960Z,34.91
2018-05-26T15:08:46.998Z,34.82
2018-05-26T15:11:18.235Z,34.67
2018-05-26T15:13:49.317Z,34.42
2018-05-26T15:16:20.365Z,34.58
2018-05-26T15:18:51.377Z,35.28
2018-05-26T15:21:22.402Z,35.45
2018-05-26T15:23:53.419Z,35.93
2018-05-26T15:26:24.472Z,36.17
2018-05-26T15:28:55.621Z,36.64
2018-05-26T15:31:26.631Z,36.63
2018-05-26T15:33:57.712Z,36.67
2018-05-26T15:36:28.779Z,36.57
2018-05-26T15:38:59.770Z,36.15
2018-05-26T15:41:30.832Z,35.85
2018-05-26T15:44:01.840Z,35.74
2018-05-26T15:46:32.873Z,35.71
2018-05-26T15:49:03.954Z,35.51
2018-05-26T15:51:34.981Z,35.39
2018-05-26T15:54:06.006Z,35.18
2018-05-26T15:56:37.032Z,35.03
2018-05-26T15:59:08.092Z,34.84
2018-05-26T16:01:39.157Z,34.38
2018-05-26T16:04:10.194Z,34.21
2018-05-26T16:06:41.226Z,33.99
2018-05-26T16:09:12.275Z,33.61
2018-05-26T16:11:43.290Z,33.48
2018-05-26T16:14:14.332Z,33.35
2018-05-26T16:16:45.328Z,33.09
2018-05-26T16:19:16.376Z,32.79
2018-05-26T16:21:47.408Z,32.72
2018-05-26T16:24:18.366Z,32.73
2018-05-26T16:26:49.387Z,32.73
2018-05-26T16:29:20.365Z,32.63
2018-05-26T16:31:51.413Z,32.44
2018-05-26T16:34:22.408Z,32.40
2018-05-26T16:36:53.431Z,32.30
2018-05-26T16:39:24.408Z,32.10
2018-05-26T16:41:55.448Z,31.85
2018-05-26T16:44:26.429Z,31.73
2018-05-26T16:46:57.451Z,31.62
2018-05-26T16:49:28.517Z,31.54
2018-05-26T16:51:59.523Z,31.33
2018-05-26T16:54:30.542Z,31.17
2018-05-26T16:57:01.546Z,31.08
2018-05-26T16:59:32.594Z,31.03
2018-05-26T17:02:03.577Z,30.97
2018-05-26T17:04:34.578Z,30.89
2018-05-26T17:07:05.581Z,30.84
2018-05-26T17:09:36.623Z,30.71
2018-05-26T17:12:07.631Z,30.54
2018-05-26T17:14:38.827Z,30.34
2018-05-26T17:17:09.964Z,30.15
2018-05-26T17:19:41.023Z,30.03
2018-05-26T17:22:12.035Z,29.91
2018-05-26T17:24:43.149Z,29.84
2018-05-26T17:27:14.160Z,29.79
2018-05-26T17:29:45.185Z,29.76
2018-05-26T17:32:16.239Z,29.67
2018-05-26T17:34:47.284Z,29.53
2018-05-26T17:37:18.335Z,29.36
2018-05-26T17:39:49.331Z,29.26
2018-05-26T17:42:20.377Z,29.12
2018-05-26T17:44:51.416Z,29.01
2018-05-26T17:47:22.446Z,28.91
2018-05-26T17:49:53.498Z,28.81
2018-05-26T17:52:24.591Z,28.69
2018-05-26T17:54:55.629Z,28.65
2018-05-26T17:57:26.659Z,28.55
2018-05-26T17:59:57.638Z,28.41
2018-05-26T18:02:28.626Z,28.28
2018-05-26T18:04:59.654Z,28.08
2018-05-26T18:07:30.754Z,27.98
2018-05-26T18:10:01.784Z,27.92
2018-05-26T18:12:32.791Z,27.82
2018-05-26T18:15:03.834Z,27.69
2018-05-26T18:17:35.004Z,27.61
2018-05-26T18:20:06.084Z,27.49
2018-05-26T18:22:37.082Z,27.37
2018-05-26T18:25:08.144Z,27.26
2018-05-26T18:27:39.146Z,27.14
2018-05-26T18:30:10.307Z,27.05
2018-05-26T18:32:41.348Z,26.90
2018-05-26T18:35:12.413Z,26.77
2018-05-26T18:37:43.409Z,26.69
2018-05-26T18:40:14.400Z,26.60
2018-05-26T18:42:45.433Z,26.54
2018-05-26T18:45:16.415Z,26.44
2018-05-26T18:47:47.443Z,26.38
2018-05-26T18:50:18.430Z,26.31
2018-05-26T18:52:49.464Z,26.24
2018-05-26T18:55:20.472Z,26.18
2018-05-26T18:57:51.485Z,26.08
2018-05-26T19:00:22.515Z,26.02
2018-05-26T19:02:53.555Z,25.92
2018-05-26T19:05:24.561Z,25.84
2018-05-26T19:07:55.532Z,25.75
2018-05-26T19:10:26.553Z,25.66
2018-05-26T19:12:57.594Z,25.58
2018-05-26T19:15:28.752Z,25.50
2018-05-26T19:17:59.803Z,25.43
2018-05-26T19:20:30.840Z,25.37
2018-05-26T19:23:01.827Z,25.30
2018-05-26T19:25:32.876Z,25.22
2018-05-26T19:28:03.854Z,25.17
2018-05-26T19:30:34.902Z,25.11
2018-05-26T19:33:05.839Z,25.05
2018-05-26T19:35:36.928Z,24.98
2018-05-26T19:38:07.922Z,24.92
2018-05-26T19:40:38.965Z,24.86
2018-05-26T19:43:09.961Z,24.81
2018-05-26T19:45:41.000Z,24.78
2018-05-26T19:48:12.040Z,24.72
2018-05-26T19:50:44.035Z,24.65
2018-05-26T19:53:15.024Z,24.59
2018-05-26T19:55:46.029Z,24.53
2018-05-26T19:58:17.056Z,24.47
2018-05-26T20:00:48.085Z,24.41
2018-05-26T20:03:19.117Z,24.35
2018-05-26T20:05:50.140Z,24.28
2018-05-26T20:08:21.158Z,24.23
2018-05-26T20:10:52.193Z,24.17
2018-05-26T20:13:23.197Z,24.13
2018-05-26T20:15:54.257Z,24.09
2018-05-26T20:18:25.240Z,24.03
2018-05-26T20:20:56.278Z,23.96
2018-05-26T20:23:27.324Z,23.90
2018-05-26T20:25:58.364Z,23.84
2018-05-26T20:28:29.358Z,23.80
2018-05-26T20:31:00.370Z,23.73
2018-05-26T20:33:31.448Z,23.65
2018-05-26T20:36:02.561Z,23.56
2018-05-26T20:38:33.534Z,23.48
2018-05-26T20:41:04.649Z,23.41
2018-05-26T20:43:35.697Z,23.34
2018-05-26T20:46:06.738Z,23.30
2018-05-26T20:48:37.753Z,23.28
2018-05-26T20:51:08.808Z,23.22
2018-05-26T20:53:39.844Z,23.16
2018-05-26T20:56:10.804Z,23.09
2018-05-26T20:58:41.817Z,23.03
2018-05-26T21:01:12.845Z,22.97
2018-05-26T21:03:51.032Z,22.93
2018-05-26T21:06:22.006Z,22.88
2018-05-26T21:08:53.037Z,22.83
2018-05-26T21:11:24.028Z,22.77
2018-05-26T21:13:55.063Z,22.72
2018-05-26T21:16:26.059Z,22.69
2018-05-26T21:18:57.063Z,22.64
2018-05-26T21:21:28.062Z,22.64
2018-05-26T21:23:59.080Z,22.62
2018-05-26T21:26:30.058Z,22.60
2018-05-26T21:29:01.103Z,22.56
2018-05-26T21:31:32.076Z,22.49
2018-05-26T21:34:03.071Z,22.47
2018-05-26T21:36:34.109Z,22.44
2018-05-26T21:39:05.145Z,22.39
2018-05-26T21:41:36.183Z,22.34
2018-05-26T21:44:07.139Z,22.31
2018-05-26T21:46:38.135Z,22.27
2018-05-26T21:49:09.173Z,22.22
2018-05-26T21:51:40.218Z,22.13
2018-05-26T21:54:11.247Z,22.08
2018-05-26T21:56:42.284Z,22.03
2018-05-26T21:59:13.349Z,21.97
2018-05-26T22:01:44.389Z,21.89
2018-05-26T22:04:15.343Z,21.81
2018-05-26T22:06:46.373Z,21.78
2018-05-26T22:09:17.403Z,21.73
2018-05-26T22:11:48.404Z,21.69
2018-05-26T22:14:19.420Z,21.62
2018-05-26T22:19:17.578Z,21.52
2018-05-26T22:21:48.582Z,21.47
2018-05-26T22:24:19.618Z,21.42
2018-05-26T22:26:50.609Z,21.39
2018-05-26T22:29:21.673Z,21.38
2018-05-26T22:31:52.642Z,21.36
2018-05-26T22:34:23.638Z,21.34
2018-05-26T22:36:54.633Z,21.30
2018-05-26T22:39:25.654Z,21.27
2018-05-26T22:41:56.635Z,21.22
2018-05-26T22:44:27.685Z,21.19
2018-05-26T22:46:58.718Z,21.13
2018-05-26T22:49:29.764Z,21.10
2018-05-26T22:52:00.749Z,21.08
2018-05-26T22:54:31.706Z,21.07
2018-05-26T22:57:02.735Z,21.06
2018-05-26T22:59:33.764Z,21.04
2018-05-26T23:02:04.783Z,21.05
2018-05-26T23:04:35.834Z,21.03
2018-05-26T23:07:06.912Z,20.97
2018-05-26T23:09:37.901Z,20.91
2018-05-26T23:12:08.894Z,20.87
2018-05-26T23:14:39.920Z,20.82
2018-05-26T23:17:10.932Z,20.80
2018-05-26T23:19:42.000Z,20.79
2018-05-26T23:22:12.993Z,20.81
2018-05-26T23:24:44.014Z,20.83
2018-05-26T23:27:22.074Z,20.81
2018-05-26T23:29:53.096Z,20.77
2018-05-26T23:32:24.098Z,20.75
2018-05-26T23:34:55.120Z,20.70
2018-05-26T23:37:26.110Z,20.69
2018-05-26T23:39:57.118Z,20.68
2018-05-26T23:42:28.152Z,20.67
2018-05-26T23:44:59.130Z,20.66
2018-05-26T23:47:30.140Z,20.66
2018-05-26T23:50:01.200Z,20.62
2018-05-26T23:52:32.189Z,20.56
2018-05-26T23:55:03.268Z,20.52
2018-05-26T23:57:34.235Z,20.52
